Phoenix, Arizona
Traffic Map
Current Weather Conditions
Phoenix, Arizona
Few Clouds
Few Clouds
94°
Feels Like: 94°
Wind Chill: 94° Ceiling: Unl
Heat Index: 94° Visibility: 10mi
Dew Point: 52° Wind: 5mph
Humidity: 24% Direction: ° ()
Pressure: 29.94in Gusts: 0mph
Raw Report DataKPHX 251751Z VRB04KT 10SM FEW090 FEW150 34/11 A2994 RMK AO2 SLP117 T03440111 10344 20250 58002
Traffic Incident Summary
Active as of:
Severity:
Category:
InformationThere was an issue retrieving the traffic information for this location. Please try a different location or try again shortly.
Advertisements
Track Severe Weather on mobile